createdAt,value
2023-05-05T00:01:37.849Z,89.24
2023-05-05T00:04:05.249Z,89.79
2023-05-05T00:06:32.491Z,89.61
2023-05-05T00:08:59.691Z,89.64
2023-05-05T00:11:26.983Z,89.14
2023-05-05T00:13:54.168Z,89.01
2023-05-05T00:16:23.272Z,88.81
2023-05-05T00:18:50.848Z,88.22
2023-05-05T00:21:18.097Z,88.20
2023-05-05T00:23:45.410Z,87.98
2023-05-05T00:26:13.151Z,88.75
2023-05-05T00:28:41.019Z,89.01
2023-05-05T00:31:08.514Z,88.80
2023-05-05T00:33:35.739Z,87.43
2023-05-05T00:36:03.100Z,88.22
2023-05-05T00:38:30.337Z,88.90
2023-05-05T00:40:57.527Z,87.82
2023-05-05T00:43:24.692Z,88.26
2023-05-05T00:46:02.000Z,88.83
2023-05-05T00:48:30.796Z,89.06
2023-05-05T00:50:58.715Z,88.80
2023-05-05T00:53:27.268Z,88.84
2023-05-05T00:55:54.570Z,88.08
2023-05-05T00:58:21.787Z,87.78
2023-05-05T01:00:49.250Z,87.46
2023-05-05T01:03:16.851Z,88.02
2023-05-05T01:05:53.202Z,88.76
2023-05-05T01:08:36.608Z,88.61
2023-05-05T01:11:17.143Z,88.36
2023-05-05T01:13:50.327Z,87.50
2023-05-05T01:16:25.756Z,87.00
2023-05-05T01:19:24.923Z,87.53
2023-05-05T01:22:00.744Z,86.83
2023-05-05T01:25:08.829Z,88.05
2023-05-05T01:27:56.063Z,88.67
2023-05-05T01:30:49.996Z,88.31
2023-05-05T01:33:23.491Z,87.56
2023-05-05T01:35:55.418Z,87.42
2023-05-05T01:38:26.902Z,87.27
2023-05-05T01:41:08.866Z,87.64
2023-05-05T01:43:37.177Z,87.63
2023-05-05T01:46:06.487Z,87.46
2023-05-05T01:48:34.053Z,87.00
2023-05-05T01:51:03.050Z,87.10
2023-05-05T01:53:31.482Z,88.26
2023-05-05T01:55:59.482Z,88.00
2023-05-05T01:58:28.810Z,88.55
2023-05-05T02:00:57.973Z,88.58
2023-05-05T02:03:26.940Z,87.79
2023-05-05T02:05:55.302Z,88.44
2023-05-05T02:08:24.164Z,88.05
2023-05-05T02:10:52.418Z,88.74
2023-05-05T02:13:22.195Z,88.55
2023-05-05T02:15:51.068Z,88.44
2023-05-05T02:18:19.228Z,88.63
2023-05-05T02:20:47.279Z,89.22
2023-05-05T02:23:14.452Z,89.41
2023-05-05T02:25:50.488Z,89.52
2023-05-05T02:28:21.642Z,90.22
2023-05-05T02:30:58.360Z,89.81
2023-05-05T02:33:28.413Z,88.47
2023-05-05T02:35:57.482Z,88.55
2023-05-05T02:38:28.762Z,88.96
2023-05-05T02:41:01.686Z,88.59
2023-05-05T02:43:31.475Z,89.33
2023-05-05T02:45:58.848Z,88.63
2023-05-05T02:48:29.653Z,90.09
2023-05-05T02:51:00.058Z,89.07
2023-05-05T02:53:32.724Z,89.36
2023-05-05T02:56:18.042Z,88.52
2023-05-05T02:59:00.859Z,88.65
2023-05-05T03:01:37.302Z,88.98
2023-05-05T03:04:13.609Z,89.14
2023-05-05T03:06:49.183Z,88.53
2023-05-05T03:09:30.058Z,88.84
2023-05-05T03:12:07.193Z,89.96
2023-05-05T03:14:46.006Z,89.08
2023-05-05T03:17:18.323Z,88.42
2023-05-05T03:19:46.827Z,87.53
2023-05-05T03:22:14.300Z,89.04
2023-05-05T03:24:50.521Z,88.97
2023-05-05T03:27:20.741Z,88.99
2023-05-05T03:29:47.986Z,88.63
2023-05-05T03:32:16.499Z,89.66
2023-05-05T03:34:44.582Z,89.91
2023-05-05T03:37:11.750Z,90.06
2023-05-05T03:39:40.892Z,89.38
2023-05-05T03:42:09.546Z,89.25
2023-05-05T03:44:37.081Z,88.41
2023-05-05T03:47:04.532Z,89.63
2023-05-05T03:49:34.500Z,90.21
2023-05-05T03:52:01.972Z,90.37
2023-05-05T03:54:29.602Z,90.77
2023-05-05T03:56:56.967Z,90.43
2023-05-05T03:59:24.166Z,90.53
2023-05-05T04:01:51.504Z,91.04
2023-05-05T04:04:18.709Z,90.47
2023-05-05T04:06:46.054Z,90.55
2023-05-05T04:09:14.649Z,91.04
2023-05-05T04:11:43.381Z,90.78
2023-05-05T04:14:11.704Z,90.09
2023-05-05T04:16:39.013Z,90.11
2023-05-05T04:19:06.175Z,91.20
2023-05-05T04:21:33.588Z,90.94
2023-05-05T04:24:01.351Z,91.15
2023-05-05T04:26:28.728Z,91.44
2023-05-05T04:28:56.242Z,91.89
2023-05-05T04:31:23.869Z,91.82
2023-05-05T04:33:53.751Z,91.42
2023-05-05T04:36:21.107Z,92.11
2023-05-05T04:38:48.405Z,91.45
2023-05-05T04:41:15.807Z,91.10
2023-05-05T04:43:44.165Z,91.13
2023-05-05T04:46:11.423Z,92.16
2023-05-05T04:48:39.008Z,91.10
2023-05-05T04:51:07.845Z,91.23
2023-05-05T04:53:36.213Z,91.44
2023-05-05T04:56:03.500Z,90.49
2023-05-05T04:58:31.272Z,89.09
2023-05-05T05:00:58.969Z,87.40
2023-05-05T05:03:26.407Z,87.00
2023-05-05T05:05:54.287Z,85.56
2023-05-05T05:08:21.579Z,82.26
2023-05-05T05:10:48.847Z,82.30
2023-05-05T05:13:16.040Z,80.15
2023-05-05T05:15:43.318Z,79.91
2023-05-05T05:18:10.532Z,79.23
2023-05-05T05:20:38.761Z,78.17
2023-05-05T05:23:06.038Z,76.46
2023-05-05T05:25:36.766Z,75.54
2023-05-05T05:28:10.098Z,75.35
2023-05-05T05:30:44.334Z,72.91
2023-05-05T05:33:12.336Z,71.79
2023-05-05T05:35:40.592Z,71.39
2023-05-05T05:38:08.447Z,71.85
2023-05-05T05:40:36.409Z,70.90
2023-05-05T05:43:04.176Z,69.28
2023-05-05T05:45:31.675Z,70.08
2023-05-05T05:47:58.954Z,69.30
2023-05-05T05:50:28.553Z,68.19
2023-05-05T05:52:56.858Z,68.81
2023-05-05T05:55:24.350Z,68.81
2023-05-05T05:57:52.454Z,68.64
2023-05-05T06:00:21.213Z,67.45
2023-05-05T06:02:55.411Z,66.50
2023-05-05T06:05:26.103Z,67.30
2023-05-05T06:07:53.942Z,66.24
2023-05-05T06:10:27.918Z,67.06
2023-05-05T06:13:09.464Z,65.01
2023-05-05T06:15:40.423Z,63.80
2023-05-05T06:18:07.901Z,65.58
2023-05-05T06:20:35.121Z,65.43
2023-05-05T06:23:02.292Z,63.97
2023-05-05T06:25:32.552Z,64.39
2023-05-05T06:28:00.109Z,63.43
2023-05-05T06:30:27.369Z,62.33
2023-05-05T06:32:54.862Z,61.08
2023-05-05T06:35:22.429Z,60.61
2023-05-05T06:37:49.587Z,61.01
2023-05-05T06:40:16.907Z,58.82
2023-05-05T06:42:44.152Z,60.32
2023-05-05T06:45:16.881Z,59.73
2023-05-05T06:47:44.553Z,58.88
2023-05-05T06:50:11.962Z,59.97
2023-05-05T06:52:39.151Z,60.71
2023-05-05T06:55:06.909Z,60.00
2023-05-05T06:57:34.211Z,55.23
2023-05-05T07:00:03.557Z,58.76
2023-05-05T07:02:30.976Z,57.91
2023-05-05T07:04:58.175Z,57.59
2023-05-05T07:07:25.477Z,54.50
2023-05-05T07:09:52.704Z,54.48
2023-05-05T07:12:19.897Z,53.14
2023-05-05T07:14:47.064Z,54.59
2023-05-05T07:17:14.329Z,54.19
2023-05-05T07:19:41.888Z,54.75
2023-05-05T07:22:09.189Z,56.79
2023-05-05T07:24:36.398Z,53.30
2023-05-05T07:27:03.728Z,52.58
2023-05-05T07:29:31.557Z,53.67
2023-05-05T07:31:58.742Z,52.01
2023-05-05T07:34:26.052Z,48.52
2023-05-05T07:36:53.317Z,50.02
2023-05-05T07:39:21.142Z,50.61
2023-05-05T07:41:48.475Z,47.97
2023-05-05T07:44:16.007Z,45.18
2023-05-05T07:46:43.240Z,46.04
2023-05-05T07:49:10.504Z,45.82
2023-05-05T07:51:37.879Z,44.74
2023-05-05T07:54:05.774Z,44.28
2023-05-05T07:56:33.059Z,44.54
2023-05-05T07:59:00.397Z,43.57
2023-05-05T08:01:27.756Z,43.68
2023-05-05T08:03:55.066Z,44.32
2023-05-05T08:06:23.421Z,44.99
2023-05-05T08:08:53.323Z,44.88
2023-05-05T08:11:21.786Z,45.24
2023-05-05T08:13:49.212Z,43.20
2023-05-05T08:16:16.637Z,42.17
2023-05-05T08:18:44.565Z,42.13
2023-05-05T08:21:12.541Z,40.97
2023-05-05T08:23:39.888Z,39.73
2023-05-05T08:26:07.426Z,40.44
2023-05-05T08:28:36.433Z,39.45
2023-05-05T08:31:08.489Z,38.07
2023-05-05T08:33:35.863Z,40.13
2023-05-05T08:36:03.131Z,39.77
2023-05-05T08:38:30.458Z,42.51
2023-05-05T08:40:57.771Z,40.39
2023-05-05T08:43:25.090Z,39.36
2023-05-05T08:45:52.976Z,40.76
2023-05-05T08:48:22.923Z,40.43
2023-05-05T08:51:01.952Z,40.09
2023-05-05T08:53:48.366Z,41.46
2023-05-05T08:56:16.067Z,41.00
2023-05-05T08:58:43.780Z,41.71
2023-05-05T09:01:12.508Z,38.63
2023-05-05T09:03:40.236Z,37.13
2023-05-05T09:06:09.499Z,36.07
2023-05-05T09:08:37.605Z,38.53
2023-05-05T09:11:05.135Z,40.78
2023-05-05T09:13:32.619Z,39.22
2023-05-05T09:15:59.849Z,42.48
2023-05-05T09:18:27.199Z,42.20
2023-05-05T09:20:54.431Z,40.79
2023-05-05T09:23:21.834Z,42.08
2023-05-05T09:26:04.419Z,43.17
2023-05-05T09:28:32.238Z,44.83
2023-05-05T09:31:15.949Z,46.01
2023-05-05T09:33:43.600Z,46.18
2023-05-05T09:36:11.701Z,47.32
2023-05-05T09:38:38.941Z,47.33
2023-05-05T09:41:06.583Z,47.82
2023-05-05T09:43:52.580Z,47.34
2023-05-05T09:46:20.083Z,47.33
2023-05-05T09:48:47.383Z,47.53
2023-05-05T09:51:14.874Z,46.59
2023-05-05T09:53:42.828Z,46.96
2023-05-05T09:56:10.524Z,47.13
2023-05-05T09:58:37.903Z,46.38
2023-05-05T10:01:06.152Z,47.79
2023-05-05T10:03:33.426Z,47.71
2023-05-05T10:06:01.164Z,48.44
2023-05-05T10:08:31.502Z,48.34
2023-05-05T10:11:00.929Z,46.48
2023-05-05T10:13:28.839Z,46.54
2023-05-05T10:15:57.518Z,47.47
2023-05-05T10:18:26.298Z,46.80
2023-05-05T10:20:58.798Z,47.76
2023-05-05T10:23:39.215Z,47.78
2023-05-05T10:26:07.819Z,46.73
2023-05-05T10:28:43.146Z,46.61
2023-05-05T10:31:25.992Z,45.64
2023-05-05T10:34:02.637Z,46.63
2023-05-05T10:36:30.579Z,45.54
2023-05-05T10:38:59.873Z,44.92
2023-05-05T10:41:27.752Z,44.01
2023-05-05T10:43:57.787Z,43.33
2023-05-05T10:46:44.854Z,44.39
2023-05-05T10:49:24.258Z,43.55
2023-05-05T10:52:20.866Z,43.96
2023-05-05T10:55:29.447Z,45.39
2023-05-05T10:57:56.737Z,45.61
2023-05-05T11:00:39.588Z,43.63
2023-05-05T11:03:18.775Z,42.99
2023-05-05T11:06:04.464Z,43.65
2023-05-05T11:08:33.035Z,43.46
2023-05-05T11:11:01.544Z,44.64
2023-05-05T11:13:29.225Z,44.64
2023-05-05T11:16:00.477Z,43.77
2023-05-05T11:18:38.008Z,45.55
2023-05-05T11:21:15.165Z,45.08
2023-05-05T11:23:46.142Z,46.07
2023-05-05T11:26:14.376Z,43.87
2023-05-05T11:28:59.509Z,44.42
2023-05-05T11:31:27.222Z,43.62
2023-05-05T11:33:54.488Z,43.72
2023-05-05T11:36:38.790Z,43.46
2023-05-05T11:39:33.423Z,44.82
2023-05-05T11:42:19.432Z,44.87
2023-05-05T11:44:47.457Z,44.15
2023-05-05T11:47:14.723Z,43.20
2023-05-05T11:49:42.028Z,43.14
2023-05-05T11:52:14.356Z,42.05
2023-05-05T11:54:50.074Z,45.37
2023-05-05T11:57:21.150Z,44.17
2023-05-05T12:00:03.753Z,44.07
2023-05-05T12:02:32.225Z,45.21
2023-05-05T12:05:00.462Z,45.40
2023-05-05T12:07:30.182Z,44.23
2023-05-05T12:09:58.075Z,43.21
2023-05-05T12:12:40.192Z,44.26
2023-05-05T12:15:09.237Z,44.73
2023-05-05T12:17:40.932Z,43.97
2023-05-05T12:20:09.593Z,44.15
2023-05-05T12:22:37.616Z,45.21
2023-05-05T12:25:07.666Z,44.69
2023-05-05T12:27:35.527Z,45.26
2023-05-05T12:30:17.412Z,44.88
2023-05-05T12:32:45.719Z,42.46
2023-05-05T12:35:13.942Z,44.81
2023-05-05T12:37:42.352Z,45.46
2023-05-05T12:40:45.561Z,44.05
2023-05-05T12:43:32.040Z,44.35
2023-05-05T12:46:11.072Z,45.81
2023-05-05T12:48:41.511Z,45.62
2023-05-05T12:51:23.420Z,47.18
2023-05-05T12:54:07.248Z,46.84
2023-05-05T12:56:40.689Z,45.90
2023-05-05T12:59:23.238Z,45.65
2023-05-05T13:01:55.337Z,45.09
2023-05-05T13:04:27.531Z,44.81
2023-05-05T13:07:21.885Z,45.11
2023-05-05T13:09:50.528Z,44.30
2023-05-05T13:12:18.384Z,43.56
2023-05-05T13:14:46.765Z,44.70
2023-05-05T13:17:14.376Z,44.01
2023-05-05T13:19:42.611Z,44.11
2023-05-05T13:22:10.196Z,44.69
2023-05-05T13:24:49.686Z,43.79
2023-05-05T13:27:18.820Z,46.17
2023-05-05T13:29:46.130Z,46.78
2023-05-05T13:32:13.443Z,45.81
2023-05-05T13:34:41.524Z,46.18
2023-05-05T13:37:08.772Z,45.30
2023-05-05T13:39:37.009Z,45.95
2023-05-05T13:42:04.460Z,46.66
2023-05-05T13:44:31.817Z,46.06
2023-05-05T13:46:59.278Z,46.06
2023-05-05T13:49:27.069Z,47.53
2023-05-05T13:51:55.255Z,46.79
2023-05-05T13:54:22.466Z,45.75
2023-05-05T13:56:49.728Z,46.17
2023-05-05T13:59:16.905Z,45.54
2023-05-05T14:01:44.109Z,46.07
2023-05-05T14:04:11.465Z,46.56
2023-05-05T14:06:38.830Z,46.34
2023-05-05T14:09:07.922Z,46.31
2023-05-05T14:11:35.143Z,46.36
2023-05-05T14:14:02.809Z,45.09
2023-05-05T14:16:30.243Z,44.68
2023-05-05T14:18:57.680Z,45.54
2023-05-05T14:21:24.849Z,44.87
2023-05-05T14:23:52.481Z,44.75
2023-05-05T14:26:19.720Z,44.85
2023-05-05T14:28:49.540Z,44.39
2023-05-05T14:31:17.773Z,45.55
2023-05-05T14:33:44.965Z,44.56
2023-05-05T14:36:12.240Z,44.76
2023-05-05T14:38:39.566Z,44.41
2023-05-05T14:41:06.838Z,44.60
2023-05-05T14:43:34.061Z,45.89
2023-05-05T14:46:06.610Z,45.97
2023-05-05T14:48:34.710Z,46.37
2023-05-05T14:51:01.995Z,46.68
2023-05-05T14:53:29.158Z,46.35
2023-05-05T14:55:56.316Z,46.73
2023-05-05T14:58:24.727Z,46.61
2023-05-05T15:00:52.872Z,46.92
2023-05-05T15:03:20.664Z,48.35
2023-05-05T15:05:47.961Z,47.02
2023-05-05T15:08:15.182Z,47.03
2023-05-05T15:10:42.489Z,46.89
2023-05-05T15:13:09.862Z,46.64
2023-05-05T15:15:37.118Z,46.77
2023-05-05T15:18:04.804Z,46.64
2023-05-05T15:20:31.987Z,47.29
2023-05-05T15:22:59.235Z,46.67
2023-05-05T15:25:26.407Z,46.78
2023-05-05T15:27:53.911Z,46.40
2023-05-05T15:30:21.046Z,47.28
2023-05-05T15:32:48.313Z,46.00
2023-05-05T15:35:15.600Z,47.46
2023-05-05T15:37:42.762Z,46.52
2023-05-05T15:40:10.397Z,46.36
2023-05-05T15:42:37.806Z,46.99
2023-05-05T15:45:06.072Z,47.62
2023-05-05T15:47:33.523Z,47.75
2023-05-05T15:50:00.734Z,47.38
2023-05-05T15:52:28.106Z,47.81
2023-05-05T15:54:55.292Z,48.53
2023-05-05T15:57:22.553Z,48.91
2023-05-05T15:59:53.053Z,48.42
2023-05-05T16:02:23.172Z,47.80
2023-05-05T16:04:50.441Z,48.32
2023-05-05T16:07:17.978Z,48.21
2023-05-05T16:09:45.285Z,47.96
2023-05-05T16:12:12.590Z,47.68
2023-05-05T16:14:39.687Z,48.25
2023-05-05T16:17:07.804Z,49.11
2023-05-05T16:19:35.097Z,48.76
2023-05-05T16:22:02.715Z,48.89
2023-05-05T16:24:30.086Z,48.26
2023-05-05T16:26:57.317Z,48.19
2023-05-05T16:29:24.502Z,48.02
2023-05-05T16:31:51.801Z,49.03
2023-05-05T16:34:18.978Z,48.69
2023-05-05T16:36:46.507Z,48.37
2023-05-05T16:39:13.790Z,49.44
2023-05-05T16:41:41.414Z,48.54
2023-05-05T16:44:08.610Z,48.28
2023-05-05T16:46:37.449Z,48.72
2023-05-05T16:49:04.899Z,49.29
2023-05-05T16:51:32.132Z,50.22
2023-05-05T16:53:59.332Z,49.74
2023-05-05T16:56:28.601Z,50.08
2023-05-05T16:58:55.799Z,49.67
2023-05-05T17:01:23.136Z,50.25
2023-05-05T17:03:50.641Z,49.65
2023-05-05T17:06:17.860Z,49.18
2023-05-05T17:08:45.151Z,49.27
2023-05-05T17:11:13.107Z,49.73
2023-05-05T17:13:40.790Z,49.56
2023-05-05T17:16:08.186Z,49.64
2023-05-05T17:18:35.483Z,50.03
2023-05-05T17:21:02.696Z,49.69
2023-05-05T17:23:30.645Z,50.27
2023-05-05T17:25:59.378Z,50.40
2023-05-05T17:28:26.511Z,50.43
2023-05-05T17:30:53.802Z,50.65
2023-05-05T17:33:22.099Z,50.79
2023-05-05T17:35:49.356Z,50.86
2023-05-05T17:38:17.586Z,51.29
2023-05-05T17:40:45.180Z,51.07
2023-05-05T17:43:12.347Z,51.28
2023-05-05T17:45:39.541Z,51.72
2023-05-05T17:48:06.688Z,51.73
2023-05-05T17:50:34.006Z,51.76
2023-05-05T17:53:01.193Z,52.16
2023-05-05T17:55:28.535Z,52.11
2023-05-05T17:57:59.107Z,52.06
2023-05-05T18:00:26.381Z,52.23
2023-05-05T18:02:53.568Z,52.62
2023-05-05T18:05:20.934Z,52.95
2023-05-05T18:07:48.157Z,53.01
2023-05-05T18:10:15.363Z,52.72
2023-05-05T18:12:42.582Z,53.29
2023-05-05T18:15:10.537Z,53.84
2023-05-05T18:17:37.997Z,53.61
2023-05-05T18:20:07.028Z,54.34
2023-05-05T18:22:34.750Z,54.72
2023-05-05T18:25:01.988Z,55.78
2023-05-05T18:27:29.275Z,55.35
2023-05-05T18:29:56.500Z,55.78
2023-05-05T18:32:23.868Z,55.19
2023-05-05T18:34:51.100Z,55.72
2023-05-05T18:37:18.244Z,55.29
2023-05-05T18:39:45.447Z,55.71
2023-05-05T18:42:13.146Z,56.86
2023-05-05T18:44:40.438Z,56.36
2023-05-05T18:47:08.076Z,56.45
2023-05-05T18:49:35.513Z,58.25
2023-05-05T18:52:02.749Z,58.27
2023-05-05T18:54:30.016Z,58.58
2023-05-05T18:56:57.353Z,59.19
2023-05-05T18:59:24.577Z,59.45
2023-05-05T19:01:51.899Z,58.97
2023-05-05T19:04:29.610Z,58.52
2023-05-05T19:06:58.853Z,60.50
2023-05-05T19:09:26.055Z,59.66
2023-05-05T19:11:53.214Z,59.26
2023-05-05T19:14:20.338Z,59.70
2023-05-05T19:16:47.660Z,58.81
2023-05-05T19:19:14.900Z,60.10
2023-05-05T19:21:42.077Z,60.43
2023-05-05T19:24:09.687Z,60.62
2023-05-05T19:26:37.135Z,58.82
2023-05-05T19:29:04.328Z,59.85
2023-05-05T19:31:31.970Z,59.99
2023-05-05T19:34:01.749Z,60.37
2023-05-05T19:36:31.625Z,60.85
2023-05-05T19:39:02.231Z,60.90
2023-05-05T19:41:30.833Z,61.37
2023-05-05T19:43:58.210Z,61.48
2023-05-05T19:46:28.470Z,62.02
2023-05-05T19:48:55.876Z,62.40
2023-05-05T19:51:23.157Z,62.53
2023-05-05T19:53:50.734Z,63.08
2023-05-05T19:56:18.008Z,62.98
2023-05-05T19:59:00.625Z,62.69
2023-05-05T20:01:29.171Z,63.09
2023-05-05T20:03:56.967Z,63.15
2023-05-05T20:06:24.384Z,61.88
2023-05-05T20:08:52.297Z,60.02
2023-05-05T20:11:21.128Z,60.57
2023-05-05T20:13:49.918Z,60.86
2023-05-05T20:16:17.771Z,61.21
2023-05-05T20:18:45.314Z,62.12
2023-05-05T20:21:12.662Z,61.64
2023-05-05T20:23:39.872Z,61.30
2023-05-05T20:26:07.726Z,62.40
2023-05-05T20:28:35.200Z,61.39
2023-05-05T20:31:02.461Z,61.96
2023-05-05T20:33:29.692Z,62.03
2023-05-05T20:35:57.169Z,62.89
2023-05-05T20:38:24.276Z,62.56
2023-05-05T20:40:52.308Z,63.31
2023-05-05T20:43:19.692Z,63.01
2023-05-05T20:45:47.069Z,63.24
2023-05-05T20:48:14.172Z,63.71
2023-05-05T20:50:41.740Z,63.80
2023-05-05T20:53:10.066Z,63.20
2023-05-05T20:55:37.488Z,64.24
2023-05-05T20:58:05.425Z,64.57
2023-05-05T21:00:32.799Z,64.44
2023-05-05T21:03:00.278Z,64.66
2023-05-05T21:05:27.670Z,64.80
2023-05-05T21:07:54.817Z,65.23
2023-05-05T21:10:22.096Z,66.04
2023-05-05T21:12:49.334Z,65.85
2023-05-05T21:15:16.671Z,65.63
2023-05-05T21:17:44.034Z,65.74
2023-05-05T21:20:12.051Z,65.46
2023-05-05T21:22:39.482Z,66.13
2023-05-05T21:25:19.605Z,66.13
2023-05-05T21:27:48.172Z,66.56
2023-05-05T21:30:15.778Z,67.04
2023-05-05T21:32:43.404Z,67.70
2023-05-05T21:35:10.763Z,68.06
2023-05-05T21:37:41.616Z,68.51
2023-05-05T21:40:13.323Z,68.48
2023-05-05T21:42:41.386Z,68.83
2023-05-05T21:45:10.295Z,68.79
2023-05-05T21:47:37.576Z,68.37
2023-05-05T21:50:05.135Z,68.70
2023-05-05T21:52:32.393Z,69.06
2023-05-05T21:54:59.548Z,69.12
2023-05-05T21:57:26.869Z,68.58
2023-05-05T21:59:54.045Z,68.99
2023-05-05T22:02:21.290Z,69.60
2023-05-05T22:04:51.158Z,69.60
2023-05-05T22:07:18.351Z,68.45
2023-05-05T22:09:46.009Z,69.14
2023-05-05T22:12:13.476Z,69.46
2023-05-05T22:14:40.660Z,69.12
2023-05-05T22:17:07.889Z,68.23
2023-05-05T22:19:35.017Z,66.95
2023-05-05T22:22:02.900Z,67.05
2023-05-05T22:24:30.076Z,66.55
2023-05-05T22:26:57.417Z,66.92
2023-05-05T22:29:25.211Z,66.70
2023-05-05T22:31:52.780Z,66.12
2023-05-05T22:34:21.772Z,65.88
2023-05-05T22:36:49.681Z,66.34
2023-05-05T22:39:18.542Z,66.12
2023-05-05T22:41:46.419Z,66.47
2023-05-05T22:44:13.736Z,66.61
2023-05-05T22:46:41.002Z,66.92
2023-05-05T22:49:08.703Z,67.24
2023-05-05T22:51:36.902Z,66.67
2023-05-05T22:54:04.262Z,66.93
2023-05-05T22:56:31.418Z,66.81
2023-05-05T22:58:58.561Z,68.14
2023-05-05T23:01:26.106Z,66.85
2023-05-05T23:03:53.410Z,66.98
2023-05-05T23:06:20.658Z,68.01
2023-05-05T23:08:48.957Z,68.33
2023-05-05T23:11:16.465Z,68.37
2023-05-05T23:13:43.591Z,69.09
2023-05-05T23:16:10.954Z,69.39
2023-05-05T23:18:38.800Z,69.70
2023-05-05T23:21:06.068Z,69.39
2023-05-05T23:23:33.225Z,70.04
2023-05-05T23:26:00.449Z,70.25
2023-05-05T23:28:27.591Z,70.39
2023-05-05T23:30:55.621Z,69.73
2023-05-05T23:33:22.818Z,70.74
2023-05-05T23:35:50.037Z,71.03
2023-05-05T23:38:17.382Z,70.95
2023-05-05T23:40:44.603Z,70.82
2023-05-05T23:43:12.280Z,71.64
2023-05-05T23:45:39.893Z,71.98
2023-05-05T23:48:07.388Z,71.03
2023-05-05T23:50:34.636Z,72.27
2023-05-05T23:53:01.813Z,72.44
2023-05-05T23:55:28.962Z,72.23
2023-05-05T23:57:56.146Z,71.89
